Time;durP1;ratioP1;P1;durP2;ratioP2;P2;SDS_P1;SDS_P2;PMS_P1;PMS_P2;Temp;Humidity;BMP_temperature;BMP_pressure;BME280_temperature;BME280_humidity;BME280_pressure;Samples;Min_cycle;Max_cycle;Signal;HPM_P1;HPM_P2
2022/05/02 00:01:07;;;;;;;314.48;28.38;;;5.20;99.90;;;;;;5048208;28;20383;-80
2022/05/02 00:03:35;;;;;;;143.82;13.40;;;5.20;99.90;;;;;;5048972;28;20403;-81
2022/05/02 00:06:02;;;;;;;157.23;11.17;;;5.20;99.90;;;;;;5037528;28;20899;-80
2022/05/02 00:08:30;;;;;;;619.78;66.95;;;5.10;99.90;;;;;;5015385;28;20389;-80
2022/05/02 00:10:58;;;;;;;718.20;71.13;;;5.20;99.90;;;;;;5046107;28;20444;-80
2022/05/02 00:13:25;;;;;;;453.83;46.22;;;5.20;99.90;;;;;;5029569;28;20394;-81
2022/05/02 00:15:52;;;;;;;228.70;22.60;;;5.20;99.90;;;;;;5046025;28;20389;-81
2022/05/02 00:18:20;;;;;;;269.95;29.58;;;5.00;99.90;;;;;;5030720;28;20459;-80
2022/05/02 00:20:48;;;;;;;255.13;28.38;;;5.00;99.90;;;;;;5038561;28;20482;-80
2022/05/02 00:23:16;;;;;;;333.70;31.30;;;4.90;99.90;;;;;;5044626;28;20457;-80
2022/05/02 00:25:43;;;;;;;523.20;48.65;;;4.90;99.90;;;;;;5031036;28;20430;-80
2022/05/02 00:28:13;;;;;;;477.05;58.50;;;4.90;99.90;;;;;;5030334;28;20416;-80
2022/05/02 00:30:41;;;;;;;572.20;61.30;;;4.90;99.90;;;;;;5049374;28;20390;-81
2022/05/02 00:33:09;;;;;;;109.55;9.25;;;4.90;99.90;;;;;;5034016;28;20417;-80
2022/05/02 00:35:37;;;;;;;752.72;79.97;;;4.90;99.90;;;;;;5032733;28;20737;-80
2022/05/02 00:38:05;;;;;;;649.63;66.03;;;4.80;99.90;;;;;;5049250;28;20393;-81
2022/05/02 00:40:32;;;;;;;664.80;85.93;;;4.80;99.90;;;;;;5033289;28;20469;-79
2022/05/02 00:43:00;;;;;;;215.33;22.87;;;4.80;99.90;;;;;;5048070;28;20560;-81
2022/05/02 00:45:27;;;;;;;579.42;56.22;;;4.80;99.90;;;;;;5048979;28;20386;-80
2022/05/02 00:48:00;;;;;;;65.68;6.30;;;4.80;99.90;;;;;;5035620;28;20384;-80
2022/05/02 00:50:35;;;;;;;172.85;19.45;;;4.80;99.90;;;;;;5049113;28;20510;-80
2022/05/02 00:53:05;;;;;;;451.98;50.28;;;4.90;99.90;;;;;;5033761;28;20397;-80
2022/05/02 00:55:33;;;;;;;503.70;52.58;;;4.80;99.90;;;;;;5042090;28;20404;-80
2022/05/02 00:58:02;;;;;;;255.48;22.60;;;4.70;99.90;;;;;;5052643;28;20430;-80
2022/05/02 01:00:31;;;;;;;337.77;36.27;;;4.70;99.90;;;;;;5051513;28;20427;-80
2022/05/02 01:03:00;;;;;;;502.60;47.08;;;4.50;99.90;;;;;;5047946;28;20463;-81
2022/05/02 01:05:27;;;;;;;50.05;4.40;;;4.50;99.90;;;;;;5032362;28;20902;-80
2022/05/02 01:07:55;;;;;;;588.27;61.40;;;4.50;99.90;;;;;;5033585;28;20480;-80
2022/05/02 01:10:24;;;;;;;288.77;22.63;;;4.50;99.90;;;;;;5033302;28;20855;-80
2022/05/02 01:12:52;;;;;;;436.40;41.58;;;4.50;99.90;;;;;;5015742;28;20444;-80
2022/05/02 01:15:19;;;;;;;165.18;17.30;;;4.50;99.90;;;;;;5032231;28;20956;-81
2022/05/02 01:17:47;;;;;;;370.45;36.88;;;4.50;99.90;;;;;;5044583;28;20480;-80
2022/05/02 01:20:15;;;;;;;198.20;20.02;;;4.50;99.90;;;;;;5033289;28;20390;-81
2022/05/02 01:22:43;;;;;;;321.13;34.15;;;4.40;99.90;;;;;;5031843;28;20438;-81
2022/05/02 01:25:11;;;;;;;641.13;72.90;;;4.30;99.90;;;;;;5040425;28;20483;-81
2022/05/02 01:27:39;;;;;;;492.33;39.00;;;4.30;99.90;;;;;;5050882;28;20391;-80
2022/05/02 01:30:07;;;;;;;351.05;35.70;;;4.30;99.90;;;;;;5051262;28;20449;-80
2022/05/02 01:32:34;;;;;;;371.55;35.45;;;4.30;99.90;;;;;;5067625;28;20833;-81
2022/05/02 01:35:02;;;;;;;376.38;32.90;;;4.20;99.90;;;;;;5052293;28;20933;-81
2022/05/02 01:37:29;;;;;;;336.10;34.53;;;4.20;99.90;;;;;;5051362;28;20441;-81
2022/05/02 01:39:57;;;;;;;221.15;18.13;;;4.20;99.90;;;;;;5051034;28;20498;-80
2022/05/02 01:42:24;;;;;;;128.00;14.18;;;4.10;99.90;;;;;;5051059;28;20406;-80
2022/05/02 01:44:52;;;;;;;48.85;4.47;;;4.10;99.90;;;;;;5033154;28;20385;-80
2022/05/02 01:47:20;;;;;;;246.07;26.83;;;4.10;99.90;;;;;;5031575;28;20887;-80
2022/05/02 01:49:47;;;;;;;487.42;57.00;;;4.00;99.90;;;;;;5032597;28;20459;-81
2022/05/02 01:52:15;;;;;;;238.48;22.60;;;4.00;99.90;;;;;;5032717;28;20787;-80
2022/05/02 01:54:42;;;;;;;132.25;11.85;;;4.00;99.90;;;;;;5032502;28;20385;-81
2022/05/02 01:57:10;;;;;;;260.65;22.10;;;4.00;99.90;;;;;;5032383;28;20396;-81
2022/05/02 01:59:37;;;;;;;336.25;29.83;;;4.00;99.90;;;;;;5032418;28;20381;-80
2022/05/02 02:02:05;;;;;;;105.87;10.10;;;3.90;99.90;;;;;;5045572;28;20391;-82
2022/05/02 02:07:19;;;;;;;372.65;36.17;;;3.90;99.90;;;;;;5031178;28;20922;-81
2022/05/02 02:09:46;;;;;;;308.33;30.90;;;3.90;99.90;;;;;;5032277;28;20929;-81
2022/05/02 02:12:14;;;;;;;93.50;14.50;;;3.90;99.90;;;;;;5031059;28;20926;-82
2022/05/02 02:14:41;;;;;;;451.77;43.33;;;3.80;99.90;;;;;;5030898;28;20488;-79
2022/05/02 02:17:09;;;;;;;260.45;21.83;;;3.80;99.90;;;;;;5032127;28;20982;-80
2022/05/02 02:19:36;;;;;;;319.17;37.78;;;3.80;99.90;;;;;;5031924;28;20394;-81
2022/05/02 02:22:16;;;;;;;230.65;23.20;;;3.80;99.90;;;;;;5045353;28;20426;-80
2022/05/02 02:24:48;;;;;;;436.10;49.22;;;3.80;99.90;;;;;;5049792;28;20431;-80
2022/05/02 02:27:16;;;;;;;214.77;22.65;;;3.80;99.90;;;;;;5050404;28;20467;-80
2022/05/02 02:29:44;;;;;;;199.20;19.08;;;3.80;99.90;;;;;;5056506;28;20400;-81
2022/05/02 02:32:11;;;;;;;322.38;33.25;;;3.80;99.90;;;;;;5030674;28;20397;-81
2022/05/02 02:34:39;;;;;;;252.52;23.65;;;3.70;99.90;;;;;;5033449;28;20397;-82
2022/05/02 02:37:06;;;;;;;455.20;41.60;;;3.70;99.90;;;;;;5066761;28;20833;-81
2022/05/02 02:39:34;;;;;;;192.02;15.02;;;3.80;99.90;;;;;;5050314;28;20388;-80
2022/05/02 02:42:02;;;;;;;291.23;30.55;;;3.70;99.90;;;;;;5038443;28;20432;-81
2022/05/02 02:44:29;;;;;;;493.92;57.80;;;3.70;99.90;;;;;;5046642;28;20768;-80
2022/05/02 02:46:57;;;;;;;177.85;14.52;;;3.70;99.90;;;;;;5031471;28;20950;-80
2022/05/02 02:49:24;;;;;;;233.13;26.50;;;3.70;99.90;;;;;;5031537;28;20440;-81
2022/05/02 02:51:52;;;;;;;206.23;15.50;;;3.60;99.90;;;;;;5046225;28;20745;-81
2022/05/02 02:54:19;;;;;;;257.42;25.70;;;3.60;99.90;;;;;;5031473;28;20484;-81
2022/05/02 02:56:47;;;;;;;451.15;41.05;;;3.60;99.90;;;;;;5040113;28;20502;-80
2022/05/02 02:59:15;;;;;;;132.48;12.38;;;3.70;99.90;;;;;;5037039;28;20416;-80
2022/05/02 03:01:43;;;;;;;206.60;19.63;;;3.70;99.90;;;;;;5038539;28;20490;-82
2022/05/02 03:06:58;;;;;;;696.95;76.47;;;3.50;99.90;;;;;;5045750;28;20390;-82
2022/05/02 03:09:27;;;;;;;188.53;24.23;;;3.50;99.90;;;;;;5029710;28;20390;-81
2022/05/02 03:11:55;;;;;;;668.03;64.95;;;3.60;99.90;;;;;;5046410;28;20469;-82
2022/05/02 03:14:22;;;;;;;249.97;25.17;;;3.60;99.90;;;;;;5062289;28;20396;-82
2022/05/02 03:16:50;;;;;;;386.92;49.90;;;3.60;99.90;;;;;;5047510;28;20392;-81
2022/05/02 03:19:17;;;;;;;410.80;39.78;;;3.60;99.90;;;;;;5031539;28;20769;-81
2022/05/02 03:21:45;;;;;;;474.92;55.78;;;3.60;99.90;;;;;;5036473;28;20769;-83
2022/05/02 03:24:12;;;;;;;128.05;12.65;;;3.60;99.90;;;;;;5046270;28;20405;-82
2022/05/02 03:26:40;;;;;;;643.55;66.78;;;3.60;99.90;;;;;;5013549;28;20397;-82
2022/05/02 03:29:07;;;;;;;173.23;11.50;;;3.60;99.90;;;;;;5030164;28;20477;-82
2022/05/02 03:31:35;;;;;;;136.88;14.18;;;3.60;99.90;;;;;;5032679;28;20392;-81
2022/05/02 03:34:03;;;;;;;200.27;18.07;;;3.50;99.90;;;;;;5050841;28;20750;-81
2022/05/02 03:36:30;;;;;;;180.98;15.98;;;3.50;99.90;;;;;;5050298;28;20449;-83
2022/05/02 03:38:58;;;;;;;43.10;2.92;;;3.50;99.90;;;;;;5050715;28;20483;-82
2022/05/02 03:41:25;;;;;;;276.27;23.75;;;3.50;99.90;;;;;;5050928;28;20392;-82
2022/05/02 03:43:53;;;;;;;116.20;13.15;;;3.50;99.90;;;;;;5049516;28;20432;-81
2022/05/02 03:46:23;;;;;;;165.38;17.42;;;3.50;99.90;;;;;;5049526;28;20391;-82
2022/05/02 03:48:52;;;;;;;121.28;11.57;;;3.50;99.90;;;;;;5031282;28;20385;-83
2022/05/02 03:51:19;;;;;;;263.42;23.30;;;3.50;99.90;;;;;;5031221;28;20389;-82
2022/05/02 03:53:47;;;;;;;64.43;5.32;;;3.60;99.90;;;;;;5029841;28;20480;-81
2022/05/02 03:56:14;;;;;;;2.30;0.97;;;3.60;99.90;;;;;;5046218;28;20393;-81
2022/05/02 03:58:42;;;;;;;72.47;8.13;;;3.40;99.90;;;;;;5031004;28;20390;-82
2022/05/02 04:01:09;;;;;;;6.10;1.02;;;3.30;99.90;;;;;;5044281;28;20972;-82
2022/05/02 04:03:37;;;;;;;122.88;13.30;;;3.30;99.90;;;;;;5048085;28;20423;-82
2022/05/02 04:06:05;;;;;;;197.07;21.35;;;3.30;99.90;;;;;;5037267;28;20405;-82
2022/05/02 04:08:32;;;;;;;60.87;6.60;;;3.50;99.90;;;;;;5038000;28;20854;-82
2022/05/02 04:11:00;;;;;;;67.40;5.45;;;3.60;99.90;;;;;;5047383;28;20382;-82
2022/05/02 04:13:28;;;;;;;2.53;0.90;;;3.40;99.90;;;;;;5049640;28;20393;-81
2022/05/02 04:15:56;;;;;;;3.58;1.08;;;3.50;99.90;;;;;;5049840;28;20448;-82
2022/05/02 04:18:23;;;;;;;85.50;8.02;;;3.40;99.90;;;;;;5033227;28;20483;-81
2022/05/02 04:20:51;;;;;;;8.00;1.17;;;3.40;99.90;;;;;;5034610;28;20393;-81
2022/05/02 04:23:18;;;;;;;2.30;1.20;;;3.50;99.90;;;;;;5034359;28;20401;-82
2022/05/02 04:25:46;;;;;;;1.60;0.80;;;3.40;99.90;;;;;;5046394;28;20434;-82
2022/05/02 04:28:13;;;;;;;3.45;0.90;;;3.50;99.90;;;;;;5049399;28;20386;-82
2022/05/02 04:30:41;;;;;;;1.92;0.90;;;3.50;99.90;;;;;;5034548;28;20400;-81
2022/05/02 04:33:09;;;;;;;59.42;5.80;;;3.60;99.90;;;;;;5032850;28;20825;-82
2022/05/02 04:35:37;;;;;;;314.85;35.53;;;3.60;99.90;;;;;;5034053;28;20436;-81
2022/05/02 04:38:04;;;;;;;1.60;0.90;;;3.60;99.90;;;;;;5046582;28;20422;-81
2022/05/02 04:40:32;;;;;;;144.70;14.70;;;3.70;99.90;;;;;;5035520;28;20751;-81
2022/05/02 04:43:00;;;;;;;83.57;8.10;;;3.80;99.90;;;;;;5032615;28;20401;-81
2022/05/02 04:45:28;;;;;;;671.83;120.20;;;3.90;99.90;;;;;;5049091;28;20393;-81
2022/05/02 04:47:57;;;;;;;117.77;11.30;;;4.00;99.90;;;;;;5033885;28;20860;-82
2022/05/02 04:50:24;;;;;;;116.57;14.93;;;4.10;99.90;;;;;;5049047;28;20420;-81
2022/05/02 04:52:52;;;;;;;5.65;1.50;;;4.20;99.90;;;;;;5032241;28;20381;-81
2022/05/02 04:55:20;;;;;;;2.90;1.30;;;4.30;99.90;;;;;;5033583;28;20393;-81
2022/05/02 04:57:47;;;;;;;4.93;1.38;;;4.40;99.90;;;;;;5032351;28;20448;-81
2022/05/02 05:00:16;;;;;;;86.68;11.05;;;4.40;99.90;;;;;;5032164;28;20393;-81
2022/05/02 05:02:43;;;;;;;40.63;3.40;;;4.50;99.90;;;;;;5048548;28;20969;-80
2022/05/02 05:05:11;;;;;;;97.75;16.50;;;4.60;99.90;;;;;;5057816;28;20419;-81
2022/05/02 05:07:39;;;;;;;118.07;13.48;;;4.60;99.90;;;;;;5050722;28;20402;-81
2022/05/02 05:10:09;;;;;;;94.25;9.00;;;4.70;99.90;;;;;;5044555;28;20400;-81
2022/05/02 05:12:39;;;;;;;383.80;42.00;;;4.90;99.90;;;;;;5033648;28;20393;-81
2022/05/02 05:18:17;;;;;;;62.92;12.50;;;5.10;99.90;;;;;;5036505;28;20451;-81
2022/05/02 05:21:08;;;;;;;3.70;1.20;;;5.10;99.90;;;;;;5031444;28;20755;-81
2022/05/02 05:24:21;;;;;;;385.92;50.65;;;5.10;99.90;;;;;;5033581;28;20876;-81
2022/05/02 05:26:51;;;;;;;610.73;105.40;;;5.30;99.90;;;;;;5033638;28;20399;-81
2022/05/02 05:29:36;;;;;;;247.63;38.63;;;5.40;99.90;;;;;;5043168;28;20408;-81
2022/05/02 05:32:13;;;;;;;719.20;98.38;;;5.40;99.90;;;;;;5052675;28;20398;-81
2022/05/02 05:35:05;;;;;;;247.77;26.00;;;5.60;99.90;;;;;;5051098;28;20394;-81
2022/05/02 05:37:57;;;;;;;289.25;35.25;;;5.80;99.90;;;;;;5045110;28;20405;-81
2022/05/02 05:40:25;;;;;;;881.33;93.55;;;5.90;99.90;;;;;;5053904;28;20421;-81
2022/05/02 05:43:06;;;;;;;818.78;103.03;;;6.10;99.90;;;;;;5049426;28;20414;-81
2022/05/02 05:45:52;;;;;;;340.47;42.37;;;6.30;99.90;;;;;;5051179;28;20384;-81
2022/05/02 05:48:44;;;;;;;2.67;1.30;;;6.20;99.90;;;;;;5067749;28;20467;-82
2022/05/02 05:51:33;;;;;;;101.80;12.65;;;6.20;99.90;;;;;;5032973;28;20381;-81
2022/05/02 05:54:20;;;;;;;437.17;43.20;;;6.20;99.90;;;;;;5032630;28;20827;-82
2022/05/02 05:57:00;;;;;;;267.10;47.65;;;6.20;99.90;;;;;;5031305;28;20428;-82
2022/05/02 05:59:55;;;;;;;28.70;5.30;;;6.30;99.90;;;;;;5031095;28;20808;-81
2022/05/02 06:02:28;;;;;;;81.28;9.70;;;6.30;99.90;;;;;;5030903;28;20429;-81
2022/05/02 06:04:58;;;;;;;353.67;46.80;;;6.50;99.90;;;;;;5036239;28;20403;-81
2022/05/02 06:07:28;;;;;;;430.10;43.17;;;6.60;99.90;;;;;;5050627;28;20445;-82
2022/05/02 06:09:58;;;;;;;836.07;85.03;;;6.70;99.90;;;;;;5067528;28;20392;-81
2022/05/02 06:12:30;;;;;;;319.33;34.35;;;7.00;99.90;;;;;;5051717;28;20383;-80
2022/05/02 06:20:39;;;;;;;200.55;20.60;;;6.80;99.90;;;;;;5035914;28;20390;-81
2022/05/02 06:23:13;;;;;;;221.30;27.20;;;7.10;99.90;;;;;;5030831;28;20918;-82
2022/05/02 06:25:43;;;;;;;143.20;16.60;;;7.10;99.90;;;;;;5029946;28;20389;-82
2022/05/02 06:28:10;;;;;;;1.92;1.20;;;7.00;99.90;;;;;;5032149;28;20468;-82
2022/05/02 06:30:41;;;;;;;102.75;10.00;;;6.90;99.90;;;;;;5065063;28;20388;-80
2022/05/02 06:33:13;;;;;;;3.17;1.40;;;6.90;99.90;;;;;;5051699;28;20395;-83
2022/05/02 06:36:08;;;;;;;234.80;34.15;;;6.90;99.90;;;;;;5051600;28;20427;-83
2022/05/02 06:39:02;;;;;;;504.52;52.50;;;6.80;99.90;;;;;;5050874;28;20855;-81
2022/05/02 06:41:38;;;;;;;38.27;4.43;;;6.90;99.90;;;;;;5049945;28;20474;-81
2022/05/02 06:44:31;;;;;;;816.50;59.17;;;6.90;99.90;;;;;;5049048;28;20404;-81
2022/05/02 06:47:23;;;;;;;924.47;83.72;;;6.90;99.90;;;;;;5033912;28;20390;-82
2022/05/02 06:49:55;;;;;;;660.38;75.72;;;7.20;99.90;;;;;;5039875;28;20386;-82
2022/05/02 06:52:51;;;;;;;276.17;37.95;;;7.30;99.90;;;;;;5050074;28;20430;-82
2022/05/02 06:55:37;;;;;;;245.75;28.13;;;7.20;99.90;;;;;;5030285;28;20389;-81
2022/05/02 06:58:16;;;;;;;976.30;74.25;;;7.10;99.90;;;;;;5046764;28;20734;-81
2022/05/02 07:01:14;;;;;;;646.78;75.78;;;7.30;99.90;;;;;;5039074;28;20477;-82
2022/05/02 07:03:45;;;;;;;5.22;2.45;;;7.50;99.90;;;;;;5009662;28;20393;-82
2022/05/02 07:06:32;;;;;;;359.38;38.45;;;7.50;99.90;;;;;;5031274;28;20389;-81
2022/05/02 07:09:04;;;;;;;328.38;44.65;;;7.50;99.90;;;;;;5034315;28;20384;-82
2022/05/02 07:11:52;;;;;;;388.10;64.63;;;7.60;99.90;;;;;;5049599;28;20924;-82
2022/05/02 07:14:37;;;;;;;4.32;2.40;;;7.60;99.90;;;;;;5049756;28;20453;-82
2022/05/02 07:17:26;;;;;;;160.20;15.77;;;7.50;99.90;;;;;;5046371;28;20744;-81
2022/05/02 07:20:05;;;;;;;194.60;27.30;;;7.50;99.90;;;;;;5031239;28;20807;-82
2022/05/02 07:22:37;;;;;;;1043.32;69.32;;;7.60;99.90;;;;;;5036532;28;20509;-81
2022/05/02 07:25:14;;;;;;;592.15;48.55;;;8.00;99.90;;;;;;5031111;28;20405;-81
2022/05/02 07:28:03;;;;;;;61.80;7.35;;;8.10;99.90;;;;;;5046105;28;20413;-81
2022/05/02 07:30:32;;;;;;;609.28;62.85;;;8.00;99.90;;;;;;5046269;28;20385;-81
2022/05/02 07:33:03;;;;;;;239.07;32.10;;;8.00;99.90;;;;;;5030942;28;20389;-81
2022/05/02 07:35:31;;;;;;;1221.53;114.25;;;7.90;99.90;;;;;;5046255;28;20398;-82
2022/05/02 07:37:59;;;;;;;124.38;12.95;;;7.90;99.90;;;;;;5033667;28;20428;-81
2022/05/02 07:40:28;;;;;;;4.00;2.22;;;7.80;99.90;;;;;;5035013;28;20407;-81
2022/05/02 07:42:58;;;;;;;121.10;20.38;;;7.70;99.90;;;;;;5038757;28;20396;-82
2022/05/02 07:45:31;;;;;;;585.13;65.57;;;7.70;99.90;;;;;;5050076;28;20403;-82
2022/05/02 07:48:04;;;;;;;716.50;61.33;;;8.00;99.90;;;;;;5049733;28;20400;-82
2022/05/02 07:50:31;;;;;;;336.50;32.13;;;8.30;99.90;;;;;;5035030;28;20447;-82
2022/05/02 07:53:01;;;;;;;686.92;52.75;;;8.40;99.90;;;;;;5050194;28;20447;-81
2022/05/02 07:55:31;;;;;;;534.17;47.90;;;8.60;99.90;;;;;;5050368;28;20887;-82
2022/05/02 07:58:00;;;;;;;103.93;13.05;;;8.60;99.90;;;;;;5050036;28;20876;-81
2022/05/02 08:00:28;;;;;;;7.00;2.97;;;8.70;99.90;;;;;;5034641;28;20447;-81
2022/05/02 08:02:55;;;;;;;129.35;11.70;;;8.50;99.90;;;;;;5034575;28;20397;-81
2022/05/02 08:05:28;;;;;;;942.42;70.85;;;8.50;99.90;;;;;;5049751;28;20891;-81
2022/05/02 08:08:07;;;;;;;936.45;62.33;;;8.70;99.90;;;;;;5049824;28;20859;-81
2022/05/02 08:11:18;;;;;;;13.10;3.10;;;8.70;99.90;;;;;;5034478;28;20393;-83
2022/05/02 08:14:12;;;;;;;108.33;11.57;;;8.60;99.90;;;;;;5033218;28;20802;-82
2022/05/02 08:17:11;;;;;;;549.95;46.67;;;8.80;99.90;;;;;;5033247;28;20425;-82
2022/05/02 08:20:06;;;;;;;1432.25;103.95;;;9.20;99.90;;;;;;5045185;28;20491;-80
2022/05/02 08:29:15;;;;;;;534.63;48.63;;;9.30;99.90;;;;;;5018579;28;20438;-81
2022/05/02 08:32:07;;;;;;;459.52;51.97;;;9.20;99.90;;;;;;5068205;28;20404;-82
2022/05/02 08:34:40;;;;;;;218.63;23.02;;;9.00;99.90;;;;;;5050809;28;20387;-81
2022/05/02 08:37:32;;;;;;;413.33;45.58;;;9.00;99.90;;;;;;5052834;28;20894;-81
2022/05/02 08:40:24;;;;;;;62.13;7.72;;;9.00;99.90;;;;;;5052769;28;20399;-81
2022/05/02 08:43:37;;;;;;;223.93;27.92;;;8.90;99.90;;;;;;5033931;28;20399;-81
2022/05/02 08:46:23;;;;;;;559.65;80.43;;;8.90;99.90;;;;;;5032652;28;20413;-81
2022/05/02 08:49:38;;;;;;;75.75;7.10;;;9.00;99.90;;;;;;5052326;28;20384;-81
2022/05/02 08:52:43;;;;;;;1067.85;83.05;;;9.10;99.90;;;;;;5035821;28;20396;-81
2022/05/02 08:55:35;;;;;;;1339.85;91.63;;;9.30;99.90;;;;;;5053413;28;20391;-81
2022/05/02 08:58:08;;;;;;;599.33;58.45;;;9.40;99.90;;;;;;5053366;28;20407;-82
2022/05/02 09:01:00;;;;;;;1091.60;100.07;;;9.40;99.90;;;;;;5052990;28;20399;-81
2022/05/02 09:03:50;;;;;;;283.45;23.98;;;9.50;99.90;;;;;;5052141;28;20406;-81
2022/05/02 09:06:55;;;;;;;390.63;44.10;;;9.50;99.90;;;;;;5052045;28;20483;-81
2022/05/02 09:10:04;;;;;;;409.33;56.95;;;9.50;99.90;;;;;;5053072;28;20442;-81
2022/05/02 09:13:02;;;;;;;128.55;12.07;;;9.50;99.90;;;;;;5052756;28;20380;-82
2022/05/02 09:15:44;;;;;;;158.57;13.77;;;9.40;99.90;;;;;;5068412;28;20419;-82
2022/05/02 09:18:49;;;;;;;630.90;62.83;;;9.40;99.90;;;;;;5052031;28;20415;-81
2022/05/02 09:21:52;;;;;;;409.05;48.55;;;9.50;99.90;;;;;;5051778;28;20403;-82
2022/05/02 09:24:47;;;;;;;603.97;64.47;;;9.50;99.90;;;;;;5051542;28;20909;-81
2022/05/02 09:27:30;;;;;;;99.70;9.73;;;9.50;99.90;;;;;;5035484;28;20886;-83
2022/05/02 09:30:16;;;;;;;484.90;41.00;;;9.40;99.90;;;;;;5052914;28;20391;-83
2022/05/02 09:33:03;;;;;;;4.15;1.30;;;9.40;99.90;;;;;;5068117;28;20410;-83
2022/05/02 09:35:33;;;;;;;597.93;55.80;;;9.40;99.90;;;;;;5035163;28;20391;-82
2022/05/02 09:38:19;;;;;;;335.70;45.40;;;9.50;99.90;;;;;;5051593;28;20396;-82
2022/05/02 09:40:47;;;;;;;693.03;51.35;;;9.40;99.90;;;;;;5034694;28;20396;-82
2022/05/02 09:49:43;;;;;;;1037.57;77.95;;;9.70;99.90;;;;;;5050894;28;20433;-81
2022/05/02 09:52:13;;;;;;;36.83;2.28;;;9.90;99.90;;;;;;5052775;28;20380;-82
2022/05/02 09:58:32;;;;;;;714.35;49.40;;;9.80;99.90;;;;;;5051177;28;20392;-82
2022/05/02 10:01:21;;;;;;;232.93;18.83;;;9.80;99.90;;;;;;5051280;28;20391;-82
2022/05/02 10:04:21;;;;;;;186.90;20.25;;;9.90;99.90;;;;;;5051091;28;20388;-82
2022/05/02 10:06:50;;;;;;;64.43;7.07;;;9.80;99.90;;;;;;5051140;28;20778;-83
2022/05/02 10:09:45;;;;;;;692.50;54.47;;;9.80;99.90;;;;;;5050529;28;20748;-83
2022/05/02 10:12:18;;;;;;;265.02;35.90;;;9.90;99.90;;;;;;5051144;28;20458;-83
2022/05/02 10:14:52;;;;;;;51.33;3.90;;;10.00;99.90;;;;;;5051012;28;20399;-83
2022/05/02 10:17:36;;;;;;;114.90;16.57;;;10.20;99.90;;;;;;5050993;28;20410;-82
2022/05/02 10:20:18;;;;;;;41.45;4.45;;;10.10;99.90;;;;;;5051214;28;20388;-84
2022/05/02 10:23:09;;;;;;;307.77;23.67;;;10.10;99.90;;;;;;5050832;28;20388;-82
2022/05/02 10:25:55;;;;;;;266.63;40.77;;;10.30;99.90;;;;;;5050373;28;20883;-82
2022/05/02 10:28:34;;;;;;;668.70;68.28;;;10.30;99.90;;;;;;5050736;28;20837;-83
2022/05/02 10:31:17;;;;;;;401.85;36.08;;;10.50;99.90;;;;;;5050585;28;20418;-82
2022/05/02 10:33:51;;;;;;;581.10;66.55;;;10.70;99.90;;;;;;5067099;28;20821;-82
2022/05/02 10:36:33;;;;;;;288.27;27.73;;;10.80;99.90;;;;;;5066858;28;20427;-82
2022/05/02 10:39:11;;;;;;;583.85;40.03;;;10.70;99.90;;;;;;5050495;28;20410;-82
2022/05/02 10:41:47;;;;;;;26.30;3.65;;;10.70;99.90;;;;;;5051325;28;20452;-80
2022/05/02 10:44:17;;;;;;;295.48;29.45;;;10.80;99.90;;;;;;5050340;28;20392;-83
2022/05/02 10:46:46;;;;;;;1108.47;73.85;;;10.90;99.90;;;;;;5050370;28;20399;-81
2022/05/02 10:49:41;;;;;;;410.40;32.42;;;11.30;99.90;;;;;;5062468;28;20396;-83
2022/05/02 10:52:30;;;;;;;137.25;11.10;;;11.60;99.90;;;;;;5030427;28;20394;-81
2022/05/02 10:55:05;;;;;;;986.95;74.32;;;11.50;99.90;;;;;;5015111;28;20468;-81
2022/05/02 10:57:39;;;;;;;1009.78;69.65;;;11.50;99.90;;;;;;5059898;28;20395;-82
2022/05/02 11:00:10;;;;;;;287.02;28.95;;;11.80;99.90;;;;;;5046592;28;20397;-83
2022/05/02 11:02:47;;;;;;;97.23;9.17;;;11.90;99.90;;;;;;5046490;28;20412;-82
2022/05/02 11:05:18;;;;;;;1158.87;96.83;;;12.10;99.90;;;;;;5041703;28;20412;-81
2022/05/02 11:08:09;;;;;;;1440.07;83.07;;;12.30;99.90;;;;;;5022133;28;20414;-82
2022/05/02 11:10:47;;;;;;;118.40;11.50;;;12.10;99.90;;;;;;5041570;28;20711;-82
2022/05/02 11:13:49;;;;;;;498.98;36.13;;;11.70;99.90;;;;;;5042672;28;20388;-81
2022/05/02 11:16:26;;;;;;;382.33;38.53;;;11.80;99.90;;;;;;5044574;28;20465;-82
2022/05/02 11:22:15;;;;;;;732.30;58.08;;;12.30;99.90;;;;;;5041711;28;20408;-82
2022/05/02 11:25:00;;;;;;;474.80;50.47;;;12.40;99.90;;;;;;5031410;28;20405;-81
2022/05/02 11:27:37;;;;;;;304.20;26.08;;;12.40;99.90;;;;;;5046528;28;20416;-82
2022/05/02 11:30:13;;;;;;;690.45;75.68;;;12.30;99.90;;;;;;5031185;28;20385;-82
2022/05/02 11:32:52;;;;;;;180.30;16.95;;;12.30;99.90;;;;;;5031157;28;20389;-82
2022/05/02 11:35:28;;;;;;;749.50;58.28;;;12.30;99.90;;;;;;5046209;28;20397;-81
2022/05/02 11:38:07;;;;;;;485.13;60.88;;;12.30;99.90;;;;;;5031222;28;20918;-82
2022/05/02 11:40:59;;;;;;;854.22;64.60;;;12.40;99.90;;;;;;5030767;28;20400;-80
2022/05/02 11:43:31;;;;;;;532.67;39.17;;;12.60;99.90;;;;;;5037687;28;20421;-82
2022/05/02 11:46:02;;;;;;;50.70;4.90;;;12.60;99.90;;;;;;5046327;28;20459;-82
2022/05/02 11:48:52;;;;;;;106.28;12.35;;;12.50;99.90;;;;;;5030957;28;20449;-82
2022/05/02 11:51:43;;;;;;;665.67;44.67;;;12.50;99.90;;;;;;5046396;28;20417;-82
2022/05/02 11:54:34;;;;;;;422.70;49.13;;;12.50;99.90;;;;;;5046317;28;20425;-82
2022/05/02 11:57:17;;;;;;;674.17;40.50;;;12.80;99.90;;;;;;5035725;28;20384;-82
2022/05/02 12:00:02;;;;;;;1822.93;111.88;;;13.00;99.90;;;;;;5050641;28;20415;-82
2022/05/02 12:02:52;;;;;;;272.30;18.63;;;13.10;99.90;;;;;;5031151;28;20891;-83
2022/05/02 12:05:25;;;;;;;93.07;8.70;;;13.00;99.90;;;;;;5030392;28;20767;-82
2022/05/02 12:07:58;;;;;;;250.25;29.50;;;13.00;99.90;;;;;;5063281;28;20446;-82
2022/05/02 12:10:35;;;;;;;170.63;28.05;;;13.10;99.90;;;;;;5044486;28;20401;-82
2022/05/02 12:13:05;;;;;;;1093.55;70.53;;;13.20;99.90;;;;;;5046018;28;20388;-81
2022/05/02 12:15:34;;;;;;;466.10;26.17;;;13.20;99.90;;;;;;5031068;28;20425;-83
2022/05/02 12:18:04;;;;;;;58.85;7.80;;;12.80;99.90;;;;;;5031687;28;20389;-82
2022/05/02 12:20:41;;;;;;;222.73;17.00;;;12.90;99.90;;;;;;5029817;28;20413;-82
2022/05/02 12:23:18;;;;;;;840.63;58.17;;;12.90;99.90;;;;;;5030875;28;20728;-83
2022/05/02 12:25:56;;;;;;;817.07;54.10;;;13.10;99.90;;;;;;5034735;28;20417;-83
2022/05/02 12:28:46;;;;;;;696.25;43.63;;;13.10;99.90;;;;;;5049991;28;20390;-83
2022/05/02 12:31:28;;;;;;;521.88;29.08;;;13.40;99.90;;;;;;5037817;28;20401;-83
2022/05/02 12:34:09;;;;;;;1297.20;70.35;;;13.50;99.90;;;;;;5044928;28;20384;-82
2022/05/02 12:36:47;;;;;;;1334.70;81.03;;;13.50;99.00;;;;;;5053416;28;20900;-82
2022/05/02 12:39:29;;;;;;;256.45;25.92;;;12.80;98.50;;;;;;5053959;28;20418;-82
2022/05/02 12:42:19;;;;;;;688.67;47.27;;;12.60;99.90;;;;;;5053712;28;20387;-82
2022/05/02 12:45:03;;;;;;;406.25;31.90;;;12.50;99.90;;;;;;5053458;28;20851;-82
2022/05/02 12:47:40;;;;;;;221.70;29.65;;;12.50;99.90;;;;;;5053568;28;20933;-82
2022/05/02 12:50:17;;;;;;;1417.50;72.10;;;12.70;99.90;;;;;;5069244;28;20399;-83
2022/05/02 12:52:56;;;;;;;361.17;28.85;;;13.10;99.90;;;;;;5045825;28;20905;-82
2022/05/02 12:55:31;;;;;;;701.73;68.40;;;13.30;99.70;;;;;;5032447;28;20828;-82
2022/05/02 13:00:49;;;;;;;392.30;42.50;;;13.60;99.70;;;;;;5033980;28;20397;-83
2022/05/02 13:03:18;;;;;;;333.60;31.65;;;13.20;99.90;;;;;;5033764;28;20405;-82
2022/05/02 13:05:45;;;;;;;915.38;64.95;;;13.40;99.90;;;;;;5033739;28;20401;-83
2022/05/02 13:08:16;;;;;;;946.65;58.47;;;13.60;99.60;;;;;;5049093;28;20392;-83
2022/05/02 13:10:44;;;;;;;1312.37;70.23;;;13.80;99.90;;;;;;5034280;28;20418;-83
2022/05/02 13:13:14;;;;;;;281.33;22.75;;;13.90;97.70;;;;;;5045377;28;20727;-83
2022/05/02 13:15:48;;;;;;;572.75;57.47;;;13.80;98.70;;;;;;5044538;28;20397;-82
2022/05/02 13:18:22;;;;;;;916.60;59.53;;;14.00;98.40;;;;;;5049399;28;20408;-81
2022/05/02 13:21:12;;;;;;;941.63;62.25;;;13.90;96.50;;;;;;5034953;28;20929;-82
2022/05/02 13:23:46;;;;;;;1160.13;64.43;;;13.90;95.90;;;;;;5048108;28;20848;-82
2022/05/02 13:26:39;;;;;;;48.97;4.70;;;14.00;95.70;;;;;;5062876;28;20420;-82
2022/05/02 13:29:44;;;;;;;861.08;54.92;;;14.10;96.70;;;;;;5032028;28;20398;-82
2022/05/02 13:32:22;;;;;;;253.30;28.23;;;14.00;95.40;;;;;;5033006;28;20385;-82
2022/05/02 13:34:56;;;;;;;295.67;31.38;;;14.10;95.60;;;;;;5042790;28;20401;-83
2022/05/02 13:37:31;;;;;;;859.75;54.30;;;14.20;94.90;;;;;;5033260;28;20399;-83
2022/05/02 13:40:02;;;;;;;1128.80;69.55;;;14.10;95.00;;;;;;5032868;28;20790;-82
2022/05/02 13:43:00;;;;;;;1039.05;78.35;;;14.20;94.30;;;;;;5048020;28;20751;-82
2022/05/02 13:45:43;;;;;;;1152.22;102.97;;;14.30;94.40;;;;;;5040682;28;20404;-82
2022/05/02 13:48:32;;;;;;;414.05;45.22;;;13.80;92.90;;;;;;5052182;28;20383;-82